Time;durP1;ratioP1;P1;durP2;ratioP2;P2;SDS_P1;SDS_P2;PMS_P1;PMS_P2;Temp;Humidity;BMP_temperature;BMP_pressure;BME280_temperature;BME280_humidity;BME280_pressure;Samples;Min_cycle;Max_cycle;Signal;HPM_P1;HPM_P2
2022/09/29 07:30:17;;;;;;;5.03;3.17;;;;;;;;;;6253618;22;19994;-81
2022/09/29 07:32:43;;;;;;;3.63;3.13;;;;;;;;;;6278365;22;20018;-81
2022/09/29 07:35:08;;;;;;;7.50;3.95;;;;;;;;;;6279846;22;20031;-82
2022/09/29 07:37:34;;;;;;;3.92;3.08;;;;;;;;;;6271492;22;20439;-82
2022/09/29 07:39:59;;;;;;;7.45;3.65;;;;;;;;;;6223020;23;20012;-82
2022/09/29 07:42:28;;;;;;;5.03;3.80;;;;;;;;;;6248673;23;20442;-78
2022/09/29 07:44:54;;;;;;;5.65;3.30;;;;;;;;;;6222218;23;20008;-83
2022/09/29 08:20:57;;;;;;;3.38;2.75;;;;;;;;;;6249717;22;20238;-92
2022/09/29 08:23:22;;;;;;;5.13;2.95;;;;;;;;;;6277222;22;20329;-94
2022/09/29 08:25:49;;;;;;;5.15;3.30;;;;;;;;;;6278810;22;20030;-94
2022/09/29 08:28:15;;;;;;;3.50;3.08;;;;;;;;;;6264111;22;19996;-88
2022/09/29 08:30:40;;;;;;;5.00;3.03;;;;;;;;;;6248118;23;20058;-93
2022/09/29 08:33:11;;;;;;;5.00;3.00;;;;;;;;;;6249714;23;20004;-85
2022/09/29 08:35:37;;;;;;;4.20;3.70;;;;;;;;;;6247610;23;20042;-78
2022/09/29 08:38:02;;;;;;;5.93;3.47;;;;;;;;;;6246925;22;20005;-80
2022/09/29 08:40:30;;;;;;;12.45;4.03;;;;;;;;;;6246999;23;20072;-83
2022/09/29 08:43:14;;;;;;;4.30;3.38;;;;;;;;;;6246931;23;20004;-79
2022/09/29 08:45:54;;;;;;;4.15;3.28;;;;;;;;;;6247060;23;20040;-87
2022/09/29 08:48:24;;;;;;;4.30;3.00;;;;;;;;;;6246892;22;20000;-79
2022/09/29 08:51:03;;;;;;;5.78;3.17;;;;;;;;;;6247746;23;20011;-90
2022/09/29 08:53:32;;;;;;;3.78;2.70;;;;;;;;;;6247020;23;20003;-93
2022/09/29 08:56:15;;;;;;;4.53;3.05;;;;;;;;;;6247719;23;20438;-88
2022/09/29 08:58:40;;;;;;;4.13;3.10;;;;;;;;;;6246660;22;20185;-80
2022/09/29 09:01:21;;;;;;;3.40;3.10;;;;;;;;;;6253298;23;20000;-82
2022/09/29 09:04:11;;;;;;;4.82;3.30;;;;;;;;;;6248693;23;20004;-85
2022/09/29 09:06:51;;;;;;;3.33;2.90;;;;;;;;;;6246731;23;20004;-86
2022/09/29 09:09:41;;;;;;;3.47;3.05;;;;;;;;;;6246626;22;20419;-84
2022/09/29 09:12:19;;;;;;;5.13;3.03;;;;;;;;;;6246604;23;20075;-84
2022/09/29 09:14:54;;;;;;;3.70;2.85;;;;;;;;;;6246577;23;20071;-84
2022/09/29 09:17:44;;;;;;;3.38;2.63;;;;;;;;;;6246561;22;20005;-84
2022/09/29 09:20:35;;;;;;;3.20;2.90;;;;;;;;;;6246623;23;20031;-84
2022/09/29 09:23:24;;;;;;;3.22;2.92;;;;;;;;;;6246315;23;20073;-85
2022/09/29 09:25:50;;;;;;;;;;;;;;;;;;6247092;23;20001;-84
2022/09/29 09:28:18;;;;;;;4.37;2.57;;;;;;;;;;6246476;22;19910;-85
2022/09/29 09:31:01;;;;;;;4.70;2.92;;;;;;;;;;6219793;23;20238;-84
2022/09/29 09:34:13;;;;;;;4.65;3.10;;;;;;;;;;6246407;23;20011;-85
2022/09/29 09:36:51;;;;;;;4.13;3.15;;;;;;;;;;6095761;23;20019;-85
2022/09/29 09:39:30;;;;;;;4.30;3.40;;;;;;;;;;6227315;23;20008;-83
2022/09/29 09:41:59;;;;;;;4.13;3.40;;;;;;;;;;6246434;23;19992;-83
2022/09/29 09:44:33;;;;;;;5.13;3.45;;;;;;;;;;6247029;23;20008;-85
2022/09/29 09:47:03;;;;;;;4.03;2.92;;;;;;;;;;6246595;23;20023;-85
2022/09/29 09:49:34;;;;;;;5.40;3.35;;;;;;;;;;6246429;22;20305;-82
2022/09/29 09:52:08;;;;;;;5.07;3.28;;;;;;;;;;6246430;23;20358;-84
2022/09/29 09:54:46;;;;;;;3.63;3.25;;;;;;;;;;6246676;23;20004;-84
2022/09/29 09:57:51;;;;;;;3.67;2.95;;;;;;;;;;6246413;22;20300;-85
2022/09/29 10:00:31;;;;;;;4.13;3.13;;;;;;;;;;6247622;23;20447;-83
2022/09/29 10:03:01;;;;;;;4.25;3.33;;;;;;;;;;6248315;23;20000;-86
2022/09/29 10:05:41;;;;;;;4.63;3.42;;;;;;;;;;6248521;23;20014;-84
2022/09/29 10:08:38;;;;;;;4.82;3.15;;;;;;;;;;6248428;22;20000;-83
2022/09/29 10:11:26;;;;;;;4.07;3.08;;;;;;;;;;6236700;23;20005;-85
2022/09/29 10:14:08;;;;;;;6.47;4.03;;;;;;;;;;6248489;23;20077;-83
2022/09/29 10:16:42;;;;;;;5.15;3.88;;;;;;;;;;6250634;23;20079;-85
2022/09/29 10:19:09;;;;;;;7.75;4.60;;;;;;;;;;6221386;23;20374;-86
2022/09/29 10:21:39;;;;;;;5.18;3.72;;;;;;;;;;6247989;23;20423;-86
2022/09/29 10:24:19;;;;;;;6.47;4.95;;;;;;;;;;6248225;23;20426;-88
2022/09/29 10:26:47;;;;;;;5.32;4.38;;;;;;;;;;6248791;23;20004;-93
2022/09/29 10:29:22;;;;;;;5.07;4.28;;;;;;;;;;6248727;22;20355;-86
2022/09/29 10:32:11;;;;;;;6.85;5.60;;;;;;;;;;6221552;23;20004;-86
2022/09/29 10:34:40;;;;;;;5.55;4.63;;;;;;;;;;6248412;23;20004;-83
2022/09/29 10:37:23;;;;;;;6.40;4.23;;;;;;;;;;6248400;23;20007;-88
2022/09/29 10:39:50;;;;;;;5.43;4.20;;;;;;;;;;6248934;23;20011;-92
2022/09/29 10:42:23;;;;;;;4.80;4.10;;;;;;;;;;6248471;23;20000;-88
2022/09/29 10:45:09;;;;;;;4.57;4.07;;;;;;;;;;6248737;23;20004;-92
2022/09/29 10:47:36;;;;;;;6.30;3.97;;;;;;;;;;6248477;22;20408;-88
2022/09/29 10:50:19;;;;;;;5.93;3.88;;;;;;;;;;6248925;23;20007;-85
2022/09/29 10:52:58;;;;;;;6.35;4.70;;;;;;;;;;6248425;23;20005;-81
2022/09/29 10:55:25;;;;;;;5.22;4.32;;;;;;;;;;6247789;23;20008;-80
2022/09/29 10:57:53;;;;;;;5.43;4.25;;;;;;;;;;6248229;22;20431;-88
2022/09/29 11:00:37;;;;;;;4.10;3.70;;;;;;;;;;6221027;23;20008;-86
2022/09/29 11:03:16;;;;;;;5.47;4.18;;;;;;;;;;6247932;23;20416;-87
2022/09/29 11:06:03;;;;;;;6.85;4.25;;;;;;;;;;6247859;23;20011;-85
2022/09/29 11:08:30;;;;;;;5.07;4.43;;;;;;;;;;6247792;22;20004;-87
2022/09/29 11:11:18;;;;;;;4.47;4.05;;;;;;;;;;6247840;23;20000;-87
2022/09/29 11:13:45;;;;;;;4.38;3.85;;;;;;;;;;6220787;23;20012;-85
2022/09/29 11:16:39;;;;;;;6.88;3.92;;;;;;;;;;6247787;23;20005;-85
2022/09/29 11:19:07;;;;;;;5.93;4.45;;;;;;;;;;6247119;22;20335;-86
2022/09/29 11:21:50;;;;;;;4.82;4.22;;;;;;;;;;6247538;23;20013;-86
2022/09/29 11:24:52;;;;;;;6.47;4.75;;;;;;;;;;6248249;23;20004;-86
2022/09/29 11:27:36;;;;;;;5.88;4.45;;;;;;;;;;6220972;22;20015;-85
2022/09/29 11:30:08;;;;;;;8.45;5.18;;;;;;;;;;6247790;23;20008;-85
2022/09/29 11:32:48;;;;;;;5.70;4.70;;;;;;;;;;6220790;23;20086;-80
2022/09/29 11:35:53;;;;;;;6.10;5.05;;;;;;;;;;6247498;23;20009;-80
2022/09/29 11:38:25;;;;;;;5.57;4.57;;;;;;;;;;6247533;22;20050;-81
2022/09/29 11:41:22;;;;;;;6.35;4.40;;;;;;;;;;6247651;23;20004;-81
2022/09/29 11:43:53;;;;;;;5.53;4.63;;;;;;;;;;6220420;23;20014;-80
2022/09/29 11:46:35;;;;;;;7.10;4.55;;;;;;;;;;6247759;23;20054;-82
2022/09/29 20:09:08;;;;;;;1.60;0.85;;;;;;;;;;6208002;22;20499;-82
2022/09/29 20:11:36;;;;;;;1.30;1.20;;;;;;;;;;6273669;22;20326;-82
2022/09/29 20:14:03;;;;;;;1.00;1.00;;;;;;;;;;6220338;23;20057;-82
2022/09/29 20:16:39;;;;;;;2.55;1.30;;;;;;;;;;6247130;23;20046;-82
2022/09/29 20:19:05;;;;;;;1.35;1.15;;;;;;;;;;6246711;23;20007;-82
2022/09/29 20:21:31;;;;;;;1.23;1.13;;;;;;;;;;6247027;22;20304;-82
2022/09/29 20:23:58;;;;;;;1.40;1.30;;;;;;;;;;6219914;23;20004;-82
2022/09/29 20:26:26;;;;;;;1.30;1.20;;;;;;;;;;6219930;23;20475;-82
2022/09/29 20:28:52;;;;;;;1.40;1.30;;;;;;;;;;6246939;23;19992;-83
2022/09/29 20:31:21;;;;;;;2.35;1.50;;;;;;;;;;6246886;23;20050;-82
2022/09/29 20:33:48;;;;;;;2.08;1.50;;;;;;;;;;6246664;23;20126;-83
2022/09/29 20:36:13;;;;;;;1.77;1.65;;;;;;;;;;6247032;23;20011;-83
2022/09/29 20:38:42;;;;;;;2.88;1.90;;;;;;;;;;6247019;23;20004;-84
2022/09/29 20:41:08;;;;;;;1.50;1.40;;;;;;;;;;6246802;23;20003;-83
2022/09/29 20:43:35;;;;;;;1.42;1.20;;;;;;;;;;6246461;22;20023;-83
2022/09/29 20:46:03;;;;;;;4.03;1.50;;;;;;;;;;6246441;23;20004;-83
2022/09/29 20:48:30;;;;;;;1.60;1.50;;;;;;;;;;6246818;23;20104;-83
2022/09/29 20:50:58;;;;;;;1.67;1.58;;;;;;;;;;6246766;23;20404;-83
2022/09/29 20:53:24;;;;;;;1.55;1.35;;;;;;;;;;6246808;22;20104;-83
2022/09/29 20:56:02;;;;;;;1.20;1.10;;;;;;;;;;6247461;23;20335;-83
2022/09/29 20:58:30;;;;;;;1.88;1.40;;;;;;;;;;6246588;23;20074;-83
2022/09/29 21:01:19;;;;;;;2.10;1.30;;;;;;;;;;6246487;23;20058;-84
2022/09/29 21:04:06;;;;;;;1.60;1.02;;;;;;;;;;6246316;22;20047;-83
2022/09/29 21:06:41;;;;;;;2.28;1.30;;;;;;;;;;6246495;23;20000;-83
2022/09/29 21:09:10;;;;;;;1.98;1.30;;;;;;;;;;6246124;23;20012;-83
2022/09/29 21:11:38;;;;;;;1.73;1.40;;;;;;;;;;6246274;22;20008;-83
2022/09/29 21:14:15;;;;;;;2.03;1.63;;;;;;;;;;6246671;23;20230;-83
2022/09/29 21:16:41;;;;;;;2.17;1.98;;;;;;;;;;6246537;23;20004;-83
2022/09/29 21:19:11;;;;;;;1.90;1.80;;;;;;;;;;6219528;23;20026;-83
2022/09/29 21:21:37;;;;;;;;;;;;;;;;;;6246600;22;20011;-83
2022/09/29 21:24:03;;;;;;;2.40;1.73;;;;;;;;;;6246322;23;20308;-83
2022/09/29 21:26:30;;;;;;;1.75;1.65;;;;;;;;;;6246573;23;20031;-83
2022/09/29 21:28:58;;;;;;;1.95;1.73;;;;;;;;;;6246908;23;20362;-83
2022/09/29 21:31:29;;;;;;;2.58;1.75;;;;;;;;;;6246065;22;20027;-83
2022/09/29 21:33:56;;;;;;;2.67;1.77;;;;;;;;;;6246330;23;20011;-83
2022/09/29 21:36:24;;;;;;;2.70;1.95;;;;;;;;;;6246497;23;20004;-83
2022/09/29 21:38:50;;;;;;;2.83;1.63;;;;;;;;;;6219301;23;20038;-83
2022/09/29 21:41:19;;;;;;;2.58;1.75;;;;;;;;;;6246783;23;20370;-82
2022/09/29 21:43:46;;;;;;;2.05;1.85;;;;;;;;;;6246415;22;20004;-83
2022/09/29 21:46:14;;;;;;;2.47;2.17;;;;;;;;;;6246518;23;20008;-83
2022/09/29 21:48:42;;;;;;;2.03;1.80;;;;;;;;;;6246328;23;20034;-84
2022/09/29 21:51:08;;;;;;;3.97;2.13;;;;;;;;;;6219560;23;20051;-83
2022/09/29 21:53:35;;;;;;;3.33;1.90;;;;;;;;;;6246440;22;20000;-83
2022/09/29 21:56:04;;;;;;;3.13;2.10;;;;;;;;;;6247416;23;20366;-83
2022/09/29 21:58:29;;;;;;;3.53;2.08;;;;;;;;;;6248366;23;20004;-84
2022/09/29 22:00:55;;;;;;;3.08;1.92;;;;;;;;;;6251524;23;20011;-84
2022/09/29 22:03:22;;;;;;;4.32;2.33;;;;;;;;;;6251002;22;20000;-84
2022/09/29 22:05:48;;;;;;;2.50;2.08;;;;;;;;;;6250624;23;20008;-84
2022/09/29 22:08:14;;;;;;;3.40;2.33;;;;;;;;;;6250134;23;20075;-84
2022/09/29 22:10:39;;;;;;;3.83;2.10;;;;;;;;;;6248199;23;20458;-84
2022/09/29 22:13:05;;;;;;;3.88;2.33;;;;;;;;;;6248278;22;20014;-84
2022/09/29 22:15:33;;;;;;;3.38;1.83;;;;;;;;;;6221712;23;20335;-84
2022/09/29 22:17:59;;;;;;;5.25;1.90;;;;;;;;;;6248237;23;20055;-85
2022/09/29 22:20:25;;;;;;;5.28;1.88;;;;;;;;;;6248762;23;20366;-84
2022/09/29 22:22:50;;;;;;;5.18;1.90;;;;;;;;;;6221181;23;20083;-84
2022/09/29 22:25:16;;;;;;;3.70;1.92;;;;;;;;;;6248131;23;20094;-84
2022/09/29 22:27:41;;;;;;;2.53;1.60;;;;;;;;;;6248452;23;20000;-84
2022/09/29 22:30:10;;;;;;;1.70;1.33;;;;;;;;;;6248382;23;20408;-85
